sensor_id;sensor_type;location;lat;lon;timestamp;P1;durP1;ratioP1;P2;durP2;ratioP2
9940;SDS011;5009;50.656;7.188;2023-12-20T05:00:47;6.20;;;3.03;;
9940;SDS011;5009;50.656;7.188;2023-12-20T05:03:12;7.10;;;2.87;;
9940;SDS011;5009;50.656;7.188;2023-12-20T05:05:38;7.23;;;2.87;;
9940;SDS011;5009;50.656;7.188;2023-12-20T05:08:04;12.60;;;3.90;;
9940;SDS011;5009;50.656;7.188;2023-12-20T05:10:30;10.63;;;4.13;;
9940;SDS011;5009;50.656;7.188;2023-12-20T05:12:55;8.47;;;3.40;;
9940;SDS011;5009;50.656;7.188;2023-12-20T05:15:21;6.17;;;3.20;;
9940;SDS011;5009;50.656;7.188;2023-12-20T05:17:46;9.30;;;3.73;;
9940;SDS011;5009;50.656;7.188;2023-12-20T05:20:12;9.20;;;3.27;;
9940;SDS011;5009;50.656;7.188;2023-12-20T05:22:37;13.07;;;3.67;;
9940;SDS011;5009;50.656;7.188;2023-12-20T05:25:03;14.13;;;3.87;;
9940;SDS011;5009;50.656;7.188;2023-12-20T05:27:29;9.57;;;3.47;;
9940;SDS011;5009;50.656;7.188;2023-12-20T05:29:55;10.10;;;3.87;;
9940;SDS011;5009;50.656;7.188;2023-12-20T05:32:22;11.27;;;4.13;;
9940;SDS011;5009;50.656;7.188;2023-12-20T05:34:48;12.83;;;3.73;;
9940;SDS011;5009;50.656;7.188;2023-12-20T05:37:14;11.03;;;4.23;;
9940;SDS011;5009;50.656;7.188;2023-12-20T05:39:39;14.40;;;4.03;;
9940;SDS011;5009;50.656;7.188;2023-12-20T05:42:05;13.00;;;3.77;;
9940;SDS011;5009;50.656;7.188;2023-12-20T05:44:30;9.77;;;3.83;;
9940;SDS011;5009;50.656;7.188;2023-12-20T05:46:56;6.17;;;3.67;;
9940;SDS011;5009;50.656;7.188;2023-12-20T05:49:22;9.63;;;4.30;;
9940;SDS011;5009;50.656;7.188;2023-12-20T05:51:47;9.73;;;3.60;;
9940;SDS011;5009;50.656;7.188;2023-12-20T05:54:12;11.57;;;3.60;;
9940;SDS011;5009;50.656;7.188;2023-12-20T05:56:38;10.20;;;4.10;;
9940;SDS011;5009;50.656;7.188;2023-12-20T05:59:04;8.87;;;3.90;;
9940;SDS011;5009;50.656;7.188;2023-12-20T06:01:29;7.70;;;3.77;;
9940;SDS011;5009;50.656;7.188;2023-12-20T06:03:55;11.03;;;4.00;;
9940;SDS011;5009;50.656;7.188;2023-12-20T06:06:21;11.37;;;3.90;;
9940;SDS011;5009;50.656;7.188;2023-12-20T06:08:46;8.27;;;4.03;;
9940;SDS011;5009;50.656;7.188;2023-12-20T06:11:12;13.00;;;4.50;;
9940;SDS011;5009;50.656;7.188;2023-12-20T06:13:38;9.00;;;3.80;;
9940;SDS011;5009;50.656;7.188;2023-12-20T06:16:05;13.70;;;4.53;;
9940;SDS011;5009;50.656;7.188;2023-12-20T06:18:32;9.33;;;3.33;;
9940;SDS011;5009;50.656;7.188;2023-12-20T06:20:57;8.30;;;4.17;;
9940;SDS011;5009;50.656;7.188;2023-12-20T06:23:23;9.10;;;3.83;;
9940;SDS011;5009;50.656;7.188;2023-12-20T06:25:48;9.27;;;3.70;;
9940;SDS011;5009;50.656;7.188;2023-12-20T06:28:14;11.70;;;4.07;;
9940;SDS011;5009;50.656;7.188;2023-12-20T06:30:39;12.33;;;3.87;;
9940;SDS011;5009;50.656;7.188;2023-12-20T06:33:05;13.13;;;4.20;;
9940;SDS011;5009;50.656;7.188;2023-12-20T06:35:31;12.90;;;4.63;;
9940;SDS011;5009;50.656;7.188;2023-12-20T06:37:57;9.57;;;3.70;;
9940;SDS011;5009;50.656;7.188;2023-12-20T06:40:23;10.73;;;3.80;;
9940;SDS011;5009;50.656;7.188;2023-12-20T06:42:48;7.90;;;3.73;;
9940;SDS011;5009;50.656;7.188;2023-12-20T06:45:14;9.37;;;4.07;;
9940;SDS011;5009;50.656;7.188;2023-12-20T06:47:39;12.00;;;4.30;;
9940;SDS011;5009;50.656;7.188;2023-12-20T06:50:05;12.97;;;4.80;;
9940;SDS011;5009;50.656;7.188;2023-12-20T06:52:33;12.77;;;4.40;;
9940;SDS011;5009;50.656;7.188;2023-12-20T06:55:01;13.70;;;4.07;;
9940;SDS011;5009;50.656;7.188;2023-12-20T06:57:27;12.73;;;4.23;;
9940;SDS011;5009;50.656;7.188;2023-12-20T06:59:53;9.73;;;4.30;;
9940;SDS011;5009;50.656;7.188;2023-12-20T07:02:18;10.13;;;3.67;;
9940;SDS011;5009;50.656;7.188;2023-12-20T07:04:44;14.03;;;4.13;;
9940;SDS011;5009;50.656;7.188;2023-12-20T07:07:09;8.70;;;3.70;;
9940;SDS011;5009;50.656;7.188;2023-12-20T07:09:35;10.90;;;4.13;;
9940;SDS011;5009;50.656;7.188;2023-12-20T07:12:00;12.53;;;4.30;;
9940;SDS011;5009;50.656;7.188;2023-12-20T07:14:27;12.40;;;4.40;;
9940;SDS011;5009;50.656;7.188;2023-12-20T07:16:53;13.03;;;4.90;;
9940;SDS011;5009;50.656;7.188;2023-12-20T07:19:18;7.80;;;4.17;;
9940;SDS011;5009;50.656;7.188;2023-12-20T07:21:44;12.20;;;4.37;;
9940;SDS011;5009;50.656;7.188;2023-12-20T07:24:09;11.73;;;4.27;;
9940;SDS011;5009;50.656;7.188;2023-12-20T07:26:35;10.27;;;4.27;;
9940;SDS011;5009;50.656;7.188;2023-12-20T07:29:02;12.13;;;4.07;;
9940;SDS011;5009;50.656;7.188;2023-12-20T07:31:29;12.00;;;4.70;;
9940;SDS011;5009;50.656;7.188;2023-12-20T07:33:54;12.37;;;3.87;;
9940;SDS011;5009;50.656;7.188;2023-12-20T07:36:20;10.97;;;4.07;;
9940;SDS011;5009;50.656;7.188;2023-12-20T07:38:46;11.87;;;4.23;;
9940;SDS011;5009;50.656;7.188;2023-12-20T07:41:12;14.13;;;4.20;;
9940;SDS011;5009;50.656;7.188;2023-12-20T07:43:38;10.23;;;4.40;;
9940;SDS011;5009;50.656;7.188;2023-12-20T07:46:07;15.67;;;4.67;;
9940;SDS011;5009;50.656;7.188;2023-12-20T07:48:34;14.27;;;4.50;;
9940;SDS011;5009;50.656;7.188;2023-12-20T07:51:01;13.23;;;4.57;;
9940;SDS011;5009;50.656;7.188;2023-12-20T07:53:26;15.30;;;5.00;;
9940;SDS011;5009;50.656;7.188;2023-12-20T07:55:52;15.97;;;4.97;;
9940;SDS011;5009;50.656;7.188;2023-12-20T07:58:18;12.93;;;4.53;;
9940;SDS011;5009;50.656;7.188;2023-12-20T08:00:43;11.60;;;4.33;;
9940;SDS011;5009;50.656;7.188;2023-12-20T08:03:09;7.77;;;3.67;;
9940;SDS011;5009;50.656;7.188;2023-12-20T08:05:34;17.93;;;4.67;;
9940;SDS011;5009;50.656;7.188;2023-12-20T08:08:00;11.53;;;4.50;;
9940;SDS011;5009;50.656;7.188;2023-12-20T08:10:26;14.23;;;4.63;;
9940;SDS011;5009;50.656;7.188;2023-12-20T08:12:54;11.10;;;4.33;;
9940;SDS011;5009;50.656;7.188;2023-12-20T08:15:20;12.17;;;4.13;;
9940;SDS011;5009;50.656;7.188;2023-12-20T08:17:45;14.83;;;4.33;;
9940;SDS011;5009;50.656;7.188;2023-12-20T08:20:11;11.90;;;4.83;;
9940;SDS011;5009;50.656;7.188;2023-12-20T08:22:36;8.83;;;4.10;;
9940;SDS011;5009;50.656;7.188;2023-12-20T08:25:02;12.20;;;4.63;;
9940;SDS011;5009;50.656;7.188;2023-12-20T08:27:28;14.07;;;5.37;;
9940;SDS011;5009;50.656;7.188;2023-12-20T08:29:53;11.80;;;4.10;;
9940;SDS011;5009;50.656;7.188;2023-12-20T08:32:19;14.60;;;4.60;;
9940;SDS011;5009;50.656;7.188;2023-12-20T08:34:44;10.70;;;4.20;;
9940;SDS011;5009;50.656;7.188;2023-12-20T08:37:10;14.10;;;4.30;;
9940;SDS011;5009;50.656;7.188;2023-12-20T08:39:36;11.60;;;4.23;;
9940;SDS011;5009;50.656;7.188;2023-12-20T08:42:02;10.27;;;4.10;;
9940;SDS011;5009;50.656;7.188;2023-12-20T08:44:28;10.77;;;3.90;;
9940;SDS011;5009;50.656;7.188;2023-12-20T08:46:54;9.90;;;3.73;;
9940;SDS011;5009;50.656;7.188;2023-12-20T08:49:22;10.13;;;4.10;;
9940;SDS011;5009;50.656;7.188;2023-12-20T08:51:47;8.27;;;4.03;;
9940;SDS011;5009;50.656;7.188;2023-12-20T08:54:13;10.57;;;4.20;;
9940;SDS011;5009;50.656;7.188;2023-12-20T08:56:39;11.97;;;4.00;;
9940;SDS011;5009;50.656;7.188;2023-12-20T08:59:05;13.87;;;4.20;;
9940;SDS011;5009;50.656;7.188;2023-12-20T09:01:30;11.83;;;3.80;;
9940;SDS011;5009;50.656;7.188;2023-12-20T09:03:56;11.30;;;4.40;;
9940;SDS011;5009;50.656;7.188;2023-12-20T09:06:21;14.37;;;4.83;;
9940;SDS011;5009;50.656;7.188;2023-12-20T09:08:47;13.83;;;3.97;;
9940;SDS011;5009;50.656;7.188;2023-12-20T09:11:12;13.47;;;4.23;;
9940;SDS011;5009;50.656;7.188;2023-12-20T09:13:39;9.30;;;3.47;;
9940;SDS011;5009;50.656;7.188;2023-12-20T09:16:04;10.27;;;3.53;;
9940;SDS011;5009;50.656;7.188;2023-12-20T09:18:30;8.20;;;3.43;;
9940;SDS011;5009;50.656;7.188;2023-12-20T09:20:55;9.27;;;3.33;;
9940;SDS011;5009;50.656;7.188;2023-12-20T09:23:21;12.00;;;4.00;;
9940;SDS011;5009;50.656;7.188;2023-12-20T09:25:46;11.17;;;3.17;;
9940;SDS011;5009;50.656;7.188;2023-12-20T09:28:12;8.07;;;3.70;;
9940;SDS011;5009;50.656;7.188;2023-12-20T09:30:38;8.53;;;2.90;;
9940;SDS011;5009;50.656;7.188;2023-12-20T09:33:05;9.50;;;3.30;;
9940;SDS011;5009;50.656;7.188;2023-12-20T09:35:32;5.53;;;3.23;;
9940;SDS011;5009;50.656;7.188;2023-12-20T09:37:57;10.13;;;3.80;;
9940;SDS011;5009;50.656;7.188;2023-12-20T09:40:23;11.47;;;3.80;;
9940;SDS011;5009;50.656;7.188;2023-12-20T09:42:57;12.07;;;3.47;;
9940;SDS011;5009;50.656;7.188;2023-12-20T09:45:28;10.50;;;3.40;;
9940;SDS011;5009;50.656;7.188;2023-12-20T09:47:55;9.90;;;3.27;;
9940;SDS011;5009;50.656;7.188;2023-12-20T09:50:23;8.10;;;3.47;;
9940;SDS011;5009;50.656;7.188;2023-12-20T09:52:52;7.77;;;3.27;;
9940;SDS011;5009;50.656;7.188;2023-12-20T09:55:19;8.47;;;3.40;;
9940;SDS011;5009;50.656;7.188;2023-12-20T09:57:45;10.60;;;3.70;;
9940;SDS011;5009;50.656;7.188;2023-12-20T10:00:12;8.90;;;3.53;;
9940;SDS011;5009;50.656;7.188;2023-12-20T10:02:41;6.50;;;2.83;;
9940;SDS011;5009;50.656;7.188;2023-12-20T10:05:10;12.50;;;3.43;;
9940;SDS011;5009;50.656;7.188;2023-12-20T10:07:43;9.37;;;3.10;;
9940;SDS011;5009;50.656;7.188;2023-12-20T10:10:09;8.27;;;3.47;;
9940;SDS011;5009;50.656;7.188;2023-12-20T10:12:37;7.60;;;3.33;;
9940;SDS011;5009;50.656;7.188;2023-12-20T10:15:03;10.33;;;3.77;;
9940;SDS011;5009;50.656;7.188;2023-12-20T10:17:29;9.73;;;3.37;;
9940;SDS011;5009;50.656;7.188;2023-12-20T10:19:55;10.00;;;3.70;;
9940;SDS011;5009;50.656;7.188;2023-12-20T10:22:21;8.03;;;3.33;;
9940;SDS011;5009;50.656;7.188;2023-12-20T10:24:46;5.77;;;2.87;;
9940;SDS011;5009;50.656;7.188;2023-12-20T10:27:12;8.70;;;3.67;;
9940;SDS011;5009;50.656;7.188;2023-12-20T10:29:38;9.57;;;3.30;;
9940;SDS011;5009;50.656;7.188;2023-12-20T10:34:49;8.80;;;3.53;;
9940;SDS011;5009;50.656;7.188;2023-12-20T10:37:14;9.03;;;3.30;;
9940;SDS011;5009;50.656;7.188;2023-12-20T10:39:40;10.37;;;4.10;;
9940;SDS011;5009;50.656;7.188;2023-12-20T10:42:07;8.87;;;3.53;;
9940;SDS011;5009;50.656;7.188;2023-12-20T10:44:37;14.67;;;3.70;;
9940;SDS011;5009;50.656;7.188;2023-12-20T10:47:02;8.73;;;3.90;;
9940;SDS011;5009;50.656;7.188;2023-12-20T10:49:29;8.70;;;3.37;;
9940;SDS011;5009;50.656;7.188;2023-12-20T10:51:57;8.90;;;3.53;;
9940;SDS011;5009;50.656;7.188;2023-12-20T10:54:27;14.47;;;4.37;;
9940;SDS011;5009;50.656;7.188;2023-12-20T10:56:53;12.97;;;3.90;;
9940;SDS011;5009;50.656;7.188;2023-12-20T10:59:19;7.80;;;3.60;;
9940;SDS011;5009;50.656;7.188;2023-12-20T11:01:45;6.87;;;3.23;;
9940;SDS011;5009;50.656;7.188;2023-12-20T11:04:15;7.17;;;3.23;;
9940;SDS011;5009;50.656;7.188;2023-12-20T11:06:47;12.27;;;3.17;;
9940;SDS011;5009;50.656;7.188;2023-12-20T11:12:28;11.90;;;3.60;;
9940;SDS011;5009;50.656;7.188;2023-12-20T11:15:02;7.93;;;3.47;;
9940;SDS011;5009;50.656;7.188;2023-12-20T11:17:29;10.13;;;3.50;;
9940;SDS011;5009;50.656;7.188;2023-12-20T11:22:22;9.57;;;3.70;;
9940;SDS011;5009;50.656;7.188;2023-12-20T11:24:52;9.40;;;3.40;;
9940;SDS011;5009;50.656;7.188;2023-12-20T11:27:19;8.17;;;3.40;;
9940;SDS011;5009;50.656;7.188;2023-12-20T11:29:51;10.73;;;3.40;;
9940;SDS011;5009;50.656;7.188;2023-12-20T11:34:56;10.40;;;3.50;;
9940;SDS011;5009;50.656;7.188;2023-12-20T11:37:30;9.47;;;3.80;;
9940;SDS011;5009;50.656;7.188;2023-12-20T11:40:05;7.87;;;3.43;;
9940;SDS011;5009;50.656;7.188;2023-12-20T11:45:30;10.37;;;3.17;;
9940;SDS011;5009;50.656;7.188;2023-12-20T11:47:57;8.60;;;3.53;;
9940;SDS011;5009;50.656;7.188;2023-12-20T11:50:23;6.67;;;3.20;;
9940;SDS011;5009;50.656;7.188;2023-12-20T11:52:49;6.73;;;3.33;;
9940;SDS011;5009;50.656;7.188;2023-12-20T11:55:16;8.97;;;3.23;;
9940;SDS011;5009;50.656;7.188;2023-12-20T11:57:42;8.90;;;3.40;;
9940;SDS011;5009;50.656;7.188;2023-12-20T12:00:09;9.40;;;3.50;;
9940;SDS011;5009;50.656;7.188;2023-12-20T12:02:35;7.73;;;3.40;;
9940;SDS011;5009;50.656;7.188;2023-12-20T12:05:00;6.63;;;3.80;;
9940;SDS011;5009;50.656;7.188;2023-12-20T12:07:26;11.00;;;3.63;;
9940;SDS011;5009;50.656;7.188;2023-12-20T12:09:51;8.47;;;3.50;;
9940;SDS011;5009;50.656;7.188;2023-12-20T12:12:17;9.63;;;3.33;;
9940;SDS011;5009;50.656;7.188;2023-12-20T12:14:44;13.50;;;3.70;;
9940;SDS011;5009;50.656;7.188;2023-12-20T12:17:13;14.10;;;4.00;;
9940;SDS011;5009;50.656;7.188;2023-12-20T12:19:39;10.47;;;4.30;;
9940;SDS011;5009;50.656;7.188;2023-12-20T12:22:10;9.47;;;3.80;;
9940;SDS011;5009;50.656;7.188;2023-12-20T12:24:40;8.10;;;3.80;;
9940;SDS011;5009;50.656;7.188;2023-12-20T12:27:07;9.07;;;3.50;;
9940;SDS011;5009;50.656;7.188;2023-12-20T12:29:33;8.63;;;3.30;;
9940;SDS011;5009;50.656;7.188;2023-12-20T12:31:59;10.30;;;3.90;;
9940;SDS011;5009;50.656;7.188;2023-12-20T12:34:28;7.03;;;3.37;;
9940;SDS011;5009;50.656;7.188;2023-12-20T12:36:54;9.23;;;3.83;;
9940;SDS011;5009;50.656;7.188;2023-12-20T12:39:20;11.40;;;4.00;;
9940;SDS011;5009;50.656;7.188;2023-12-20T12:41:45;9.10;;;3.40;;
9940;SDS011;5009;50.656;7.188;2023-12-20T12:44:11;8.20;;;3.30;;
9940;SDS011;5009;50.656;7.188;2023-12-20T12:46:37;7.47;;;3.80;;
9940;SDS011;5009;50.656;7.188;2023-12-20T12:49:03;9.03;;;3.27;;
9940;SDS011;5009;50.656;7.188;2023-12-20T12:51:29;8.40;;;3.10;;
9940;SDS011;5009;50.656;7.188;2023-12-20T12:53:54;8.47;;;3.57;;
9940;SDS011;5009;50.656;7.188;2023-12-20T12:56:20;9.80;;;3.40;;
9940;SDS011;5009;50.656;7.188;2023-12-20T12:58:47;7.67;;;3.73;;
9940;SDS011;5009;50.656;7.188;2023-12-20T13:01:12;10.33;;;3.20;;
9940;SDS011;5009;50.656;7.188;2023-12-20T13:03:39;9.47;;;3.40;;
9940;SDS011;5009;50.656;7.188;2023-12-20T13:06:04;10.37;;;3.00;;
9940;SDS011;5009;50.656;7.188;2023-12-20T13:08:31;10.07;;;3.10;;
9940;SDS011;5009;50.656;7.188;2023-12-20T13:10:57;9.43;;;3.17;;
9940;SDS011;5009;50.656;7.188;2023-12-20T13:13:25;11.37;;;3.60;;
9940;SDS011;5009;50.656;7.188;2023-12-20T13:15:51;8.57;;;3.83;;
9940;SDS011;5009;50.656;7.188;2023-12-20T13:18:19;8.90;;;3.80;;
9940;SDS011;5009;50.656;7.188;2023-12-20T13:20:46;9.10;;;3.73;;
9940;SDS011;5009;50.656;7.188;2023-12-20T13:23:11;9.70;;;3.83;;
9940;SDS011;5009;50.656;7.188;2023-12-20T13:25:37;8.63;;;3.97;;
9940;SDS011;5009;50.656;7.188;2023-12-20T13:28:02;6.30;;;3.83;;
9940;SDS011;5009;50.656;7.188;2023-12-20T13:30:28;8.30;;;4.20;;
9940;SDS011;5009;50.656;7.188;2023-12-20T13:32:54;7.93;;;3.70;;
9940;SDS011;5009;50.656;7.188;2023-12-20T13:35:20;10.37;;;4.10;;
9940;SDS011;5009;50.656;7.188;2023-12-20T13:37:45;6.93;;;4.47;;
9940;SDS011;5009;50.656;7.188;2023-12-20T13:40:11;12.43;;;6.00;;
9940;SDS011;5009;50.656;7.188;2023-12-20T13:42:38;8.50;;;4.53;;
9940;SDS011;5009;50.656;7.188;2023-12-20T13:45:04;8.90;;;4.30;;
9940;SDS011;5009;50.656;7.188;2023-12-20T13:47:31;7.17;;;3.10;;
9940;SDS011;5009;50.656;7.188;2023-12-20T13:49:57;7.87;;;3.43;;
9940;SDS011;5009;50.656;7.188;2023-12-20T13:52:22;7.10;;;3.33;;
9940;SDS011;5009;50.656;7.188;2023-12-20T13:54:48;8.23;;;3.73;;
9940;SDS011;5009;50.656;7.188;2023-12-20T13:57:13;9.17;;;3.83;;
9940;SDS011;5009;50.656;7.188;2023-12-20T13:59:39;7.77;;;3.30;;
9940;SDS011;5009;50.656;7.188;2023-12-20T14:02:04;8.77;;;3.47;;
9940;SDS011;5009;50.656;7.188;2023-12-20T14:04:30;7.60;;;3.40;;
9940;SDS011;5009;50.656;7.188;2023-12-20T14:06:56;7.50;;;3.83;;
9940;SDS011;5009;50.656;7.188;2023-12-20T14:09:22;8.37;;;3.60;;
9940;SDS011;5009;50.656;7.188;2023-12-20T14:11:48;10.43;;;4.10;;
9940;SDS011;5009;50.656;7.188;2023-12-20T14:14:13;6.23;;;3.87;;
9940;SDS011;5009;50.656;7.188;2023-12-20T14:16:39;7.93;;;3.73;;
9940;SDS011;5009;50.656;7.188;2023-12-20T14:19:04;6.60;;;3.37;;
9940;SDS011;5009;50.656;7.188;2023-12-20T14:21:32;6.40;;;3.33;;
9940;SDS011;5009;50.656;7.188;2023-12-20T14:23:58;6.40;;;3.27;;
9940;SDS011;5009;50.656;7.188;2023-12-20T14:26:24;6.97;;;3.40;;
9940;SDS011;5009;50.656;7.188;2023-12-20T14:28:49;7.23;;;3.30;;
9940;SDS011;5009;50.656;7.188;2023-12-20T14:31:15;4.80;;;2.60;;
9940;SDS011;5009;50.656;7.188;2023-12-20T14:33:40;3.93;;;2.57;;
9940;SDS011;5009;50.656;7.188;2023-12-20T14:36:07;6.57;;;2.57;;
9940;SDS011;5009;50.656;7.188;2023-12-20T14:38:33;2.87;;;2.10;;
9940;SDS011;5009;50.656;7.188;2023-12-20T14:40:59;4.07;;;2.40;;
9940;SDS011;5009;50.656;7.188;2023-12-20T14:43:25;3.70;;;2.10;;
9940;SDS011;5009;50.656;7.188;2023-12-20T14:45:51;4.00;;;2.10;;
9940;SDS011;5009;50.656;7.188;2023-12-20T14:48:17;3.93;;;2.17;;
9940;SDS011;5009;50.656;7.188;2023-12-20T14:50:43;2.10;;;1.90;;
9940;SDS011;5009;50.656;7.188;2023-12-20T14:53:09;2.50;;;1.90;;
9940;SDS011;5009;50.656;7.188;2023-12-20T14:55:35;2.43;;;1.70;;
9940;SDS011;5009;50.656;7.188;2023-12-20T14:58:00;4.70;;;2.00;;
9940;SDS011;5009;50.656;7.188;2023-12-20T15:00:26;2.17;;;1.53;;
9940;SDS011;5009;50.656;7.188;2023-12-20T15:02:52;2.87;;;1.70;;
9940;SDS011;5009;50.656;7.188;2023-12-20T15:05:20;2.80;;;2.13;;
9940;SDS011;5009;50.656;7.188;2023-12-20T15:07:46;2.53;;;1.73;;
9940;SDS011;5009;50.656;7.188;2023-12-20T15:10:13;4.30;;;1.67;;
9940;SDS011;5009;50.656;7.188;2023-12-20T15:12:38;2.87;;;1.90;;
9940;SDS011;5009;50.656;7.188;2023-12-20T15:15:04;3.33;;;2.07;;
9940;SDS011;5009;50.656;7.188;2023-12-20T15:17:31;3.90;;;2.27;;
9940;SDS011;5009;50.656;7.188;2023-12-20T15:19:56;3.63;;;2.10;;
9940;SDS011;5009;50.656;7.188;2023-12-20T15:22:22;2.97;;;1.87;;
9940;SDS011;5009;50.656;7.188;2023-12-20T15:24:47;5.73;;;2.53;;
9940;SDS011;5009;50.656;7.188;2023-12-20T15:27:13;2.80;;;2.10;;
9940;SDS011;5009;50.656;7.188;2023-12-20T15:29:38;4.33;;;2.10;;
9940;SDS011;5009;50.656;7.188;2023-12-20T15:32:04;6.30;;;2.17;;
9940;SDS011;5009;50.656;7.188;2023-12-20T15:34:30;3.10;;;2.50;;
9940;SDS011;5009;50.656;7.188;2023-12-20T15:36:56;4.33;;;2.50;;
9940;SDS011;5009;50.656;7.188;2023-12-20T15:39:22;3.33;;;2.10;;
9940;SDS011;5009;50.656;7.188;2023-12-20T15:41:48;3.40;;;2.30;;
9940;SDS011;5009;50.656;7.188;2023-12-20T15:44:14;4.43;;;2.80;;
9940;SDS011;5009;50.656;7.188;2023-12-20T15:46:40;4.67;;;2.83;;
9940;SDS011;5009;50.656;7.188;2023-12-20T15:49:06;7.17;;;2.80;;
9940;SDS011;5009;50.656;7.188;2023-12-20T15:51:32;4.50;;;2.60;;
9940;SDS011;5009;50.656;7.188;2023-12-20T15:53:57;7.20;;;2.57;;
9940;SDS011;5009;50.656;7.188;2023-12-20T15:56:23;5.27;;;2.77;;
9940;SDS011;5009;50.656;7.188;2023-12-20T15:58:48;4.57;;;3.03;;
9940;SDS011;5009;50.656;7.188;2023-12-20T16:01:16;4.07;;;2.97;;
9940;SDS011;5009;50.656;7.188;2023-12-20T16:03:42;5.70;;;3.00;;
9940;SDS011;5009;50.656;7.188;2023-12-20T16:06:08;8.00;;;3.10;;
9940;SDS011;5009;50.656;7.188;2023-12-20T16:08:35;8.97;;;3.70;;
9940;SDS011;5009;50.656;7.188;2023-12-20T16:11:00;7.07;;;3.13;;
9940;SDS011;5009;50.656;7.188;2023-12-20T16:13:26;6.23;;;3.90;;
9940;SDS011;5009;50.656;7.188;2023-12-20T16:15:52;8.17;;;3.60;;
9940;SDS011;5009;50.656;7.188;2023-12-20T16:18:17;6.37;;;3.73;;
9940;SDS011;5009;50.656;7.188;2023-12-20T16:20:43;5.37;;;3.90;;
9940;SDS011;5009;50.656;7.188;2023-12-20T16:23:08;6.97;;;3.23;;
9940;SDS011;5009;50.656;7.188;2023-12-20T16:25:35;8.03;;;3.90;;
9940;SDS011;5009;50.656;7.188;2023-12-20T16:28:03;3.47;;;2.90;;
9940;SDS011;5009;50.656;7.188;2023-12-20T16:30:31;6.93;;;3.40;;
9940;SDS011;5009;50.656;7.188;2023-12-20T16:32:57;5.83;;;2.93;;
9940;SDS011;5009;50.656;7.188;2023-12-20T16:35:23;3.90;;;2.70;;
9940;SDS011;5009;50.656;7.188;2023-12-20T16:37:49;4.43;;;2.77;;
9940;SDS011;5009;50.656;7.188;2023-12-20T16:40:14;6.67;;;3.30;;
9940;SDS011;5009;50.656;7.188;2023-12-20T16:42:40;4.97;;;3.03;;
9940;SDS011;5009;50.656;7.188;2023-12-20T16:45:05;2.83;;;2.47;;
9940;SDS011;5009;50.656;7.188;2023-12-20T16:47:31;3.73;;;2.43;;
9940;SDS011;5009;50.656;7.188;2023-12-20T16:49:57;3.50;;;3.13;;
9940;SDS011;5009;50.656;7.188;2023-12-20T16:52:23;4.33;;;3.20;;
9940;SDS011;5009;50.656;7.188;2023-12-20T16:54:49;6.20;;;3.33;;
9940;SDS011;5009;50.656;7.188;2023-12-20T16:57:14;6.23;;;4.43;;
9940;SDS011;5009;50.656;7.188;2023-12-20T16:59:43;6.27;;;4.83;;
9940;SDS011;5009;50.656;7.188;2023-12-20T17:02:09;12.37;;;11.13;;
9940;SDS011;5009;50.656;7.188;2023-12-20T17:04:34;25.70;;;22.90;;
9940;SDS011;5009;50.656;7.188;2023-12-20T17:07:00;25.80;;;22.43;;
9940;SDS011;5009;50.656;7.188;2023-12-20T17:09:26;24.77;;;20.87;;
9940;SDS011;5009;50.656;7.188;2023-12-20T17:11:52;10.20;;;7.80;;
9940;SDS011;5009;50.656;7.188;2023-12-20T17:14:18;6.47;;;4.73;;
9940;SDS011;5009;50.656;7.188;2023-12-20T17:16:43;4.80;;;4.23;;
9940;SDS011;5009;50.656;7.188;2023-12-20T17:19:09;4.47;;;3.50;;
9940;SDS011;5009;50.656;7.188;2023-12-20T17:21:34;5.20;;;3.80;;
9940;SDS011;5009;50.656;7.188;2023-12-20T17:24:02;6.13;;;2.87;;
9940;SDS011;5009;50.656;7.188;2023-12-20T17:26:28;4.17;;;2.80;;
9940;SDS011;5009;50.656;7.188;2023-12-20T17:28:53;6.47;;;4.80;;
9940;SDS011;5009;50.656;7.188;2023-12-20T17:31:19;7.43;;;4.77;;
9940;SDS011;5009;50.656;7.188;2023-12-20T17:33:44;5.30;;;3.90;;
9940;SDS011;5009;50.656;7.188;2023-12-20T17:36:10;4.53;;;3.60;;
9940;SDS011;5009;50.656;7.188;2023-12-20T17:38:39;3.73;;;3.43;;
9940;SDS011;5009;50.656;7.188;2023-12-20T17:41:05;7.90;;;3.73;;
9940;SDS011;5009;50.656;7.188;2023-12-20T17:43:31;8.33;;;5.67;;
9940;SDS011;5009;50.656;7.188;2023-12-20T17:45:57;6.87;;;4.97;;
9940;SDS011;5009;50.656;7.188;2023-12-20T17:48:23;5.17;;;4.50;;
9940;SDS011;5009;50.656;7.188;2023-12-20T17:50:48;7.33;;;4.63;;
9940;SDS011;5009;50.656;7.188;2023-12-20T17:53:14;5.50;;;4.70;;
9940;SDS011;5009;50.656;7.188;2023-12-20T17:55:40;7.73;;;5.67;;
9940;SDS011;5009;50.656;7.188;2023-12-20T17:58:06;8.03;;;5.80;;
9940;SDS011;5009;50.656;7.188;2023-12-20T18:00:33;8.23;;;5.17;;
9940;SDS011;5009;50.656;7.188;2023-12-20T18:02:59;9.87;;;6.00;;
9940;SDS011;5009;50.656;7.188;2023-12-20T18:05:25;6.03;;;5.37;;
9940;SDS011;5009;50.656;7.188;2023-12-20T18:07:51;8.83;;;5.80;;
9940;SDS011;5009;50.656;7.188;2023-12-20T18:10:17;6.37;;;5.10;;
9940;SDS011;5009;50.656;7.188;2023-12-20T18:12:44;7.30;;;5.60;;
9940;SDS011;5009;50.656;7.188;2023-12-20T18:15:10;6.57;;;5.37;;
9940;SDS011;5009;50.656;7.188;2023-12-20T18:17:37;6.00;;;5.10;;
9940;SDS011;5009;50.656;7.188;2023-12-20T18:20:02;6.00;;;4.67;;
9940;SDS011;5009;50.656;7.188;2023-12-20T18:22:28;6.10;;;4.67;;
9940;SDS011;5009;50.656;7.188;2023-12-20T18:24:55;6.10;;;4.30;;
9940;SDS011;5009;50.656;7.188;2023-12-20T18:27:21;6.33;;;4.30;;
9940;SDS011;5009;50.656;7.188;2023-12-20T18:29:47;5.20;;;3.97;;
9940;SDS011;5009;50.656;7.188;2023-12-20T18:32:13;6.37;;;3.93;;
9940;SDS011;5009;50.656;7.188;2023-12-20T18:34:38;5.73;;;3.80;;
9940;SDS011;5009;50.656;7.188;2023-12-20T18:37:04;6.23;;;4.30;;
9940;SDS011;5009;50.656;7.188;2023-12-20T18:39:31;8.07;;;5.50;;
9940;SDS011;5009;50.656;7.188;2023-12-20T18:41:57;9.37;;;6.67;;
9940;SDS011;5009;50.656;7.188;2023-12-20T18:44:23;8.57;;;5.80;;
9940;SDS011;5009;50.656;7.188;2023-12-20T18:46:48;9.30;;;6.37;;
9940;SDS011;5009;50.656;7.188;2023-12-20T18:49:15;9.27;;;5.30;;
9940;SDS011;5009;50.656;7.188;2023-12-20T18:51:41;7.77;;;5.77;;
9940;SDS011;5009;50.656;7.188;2023-12-20T18:54:08;7.80;;;5.53;;
9940;SDS011;5009;50.656;7.188;2023-12-20T18:56:33;6.03;;;5.23;;
9940;SDS011;5009;50.656;7.188;2023-12-20T18:59:02;6.57;;;5.50;;
9940;SDS011;5009;50.656;7.188;2023-12-20T19:01:28;6.10;;;4.90;;
9940;SDS011;5009;50.656;7.188;2023-12-20T19:03:53;6.53;;;5.50;;
9940;SDS011;5009;50.656;7.188;2023-12-20T19:06:19;7.77;;;5.33;;
9940;SDS011;5009;50.656;7.188;2023-12-20T19:08:44;7.10;;;5.00;;
9940;SDS011;5009;50.656;7.188;2023-12-20T19:11:14;10.07;;;6.73;;
9940;SDS011;5009;50.656;7.188;2023-12-20T19:13:40;8.00;;;6.07;;
9940;SDS011;5009;50.656;7.188;2023-12-20T19:16:06;8.43;;;6.20;;
9940;SDS011;5009;50.656;7.188;2023-12-20T19:18:32;9.30;;;6.43;;
9940;SDS011;5009;50.656;7.188;2023-12-20T19:20:57;9.83;;;6.20;;
9940;SDS011;5009;50.656;7.188;2023-12-20T19:23:24;8.33;;;5.70;;
9940;SDS011;5009;50.656;7.188;2023-12-20T19:25:50;8.03;;;5.80;;
9940;SDS011;5009;50.656;7.188;2023-12-20T19:28:16;7.03;;;5.00;;
9940;SDS011;5009;50.656;7.188;2023-12-20T19:30:42;8.13;;;5.57;;
9940;SDS011;5009;50.656;7.188;2023-12-20T19:33:08;8.70;;;5.47;;
9940;SDS011;5009;50.656;7.188;2023-12-20T19:35:34;7.73;;;4.60;;
9940;SDS011;5009;50.656;7.188;2023-12-20T19:37:59;7.03;;;4.63;;
9940;SDS011;5009;50.656;7.188;2023-12-20T19:40:25;5.77;;;4.47;;
9940;SDS011;5009;50.656;7.188;2023-12-20T19:42:50;7.93;;;4.70;;
9940;SDS011;5009;50.656;7.188;2023-12-20T19:45:16;10.23;;;5.97;;
9940;SDS011;5009;50.656;7.188;2023-12-20T19:47:47;8.37;;;6.10;;
9940;SDS011;5009;50.656;7.188;2023-12-20T19:50:16;8.63;;;6.03;;
9940;SDS011;5009;50.656;7.188;2023-12-20T19:52:42;9.70;;;5.43;;
9940;SDS011;5009;50.656;7.188;2023-12-20T19:55:08;9.10;;;5.57;;
9940;SDS011;5009;50.656;7.188;2023-12-20T19:57:34;7.10;;;4.40;;
9940;SDS011;5009;50.656;7.188;2023-12-20T20:00:00;6.27;;;4.13;;
9940;SDS011;5009;50.656;7.188;2023-12-20T20:02:26;5.97;;;4.47;;
9940;SDS011;5009;50.656;7.188;2023-12-20T20:04:51;8.00;;;5.17;;
9940;SDS011;5009;50.656;7.188;2023-12-20T20:07:17;6.50;;;4.37;;
9940;SDS011;5009;50.656;7.188;2023-12-20T20:09:47;6.70;;;3.77;;
9940;SDS011;5009;50.656;7.188;2023-12-20T20:12:13;4.47;;;3.10;;
9940;SDS011;5009;50.656;7.188;2023-12-20T20:14:39;7.00;;;4.20;;
9940;SDS011;5009;50.656;7.188;2023-12-20T20:17:05;21.20;;;16.00;;